Time;durP1;ratioP1;P1;durP2;ratioP2;P2;SDS_P1;SDS_P2;PMS_P1;PMS_P2;Temp;Humidity;BMP_temperature;BMP_pressure;BME280_temperature;BME280_humidity;BME280_pressure;Samples;Min_cycle;Max_cycle;Signal;HPM_P1;HPM_P2
2022/06/01 00:00:09;;;;;;;2.60;1.52;;;12.20;99.90;;;11.87;88.69;97002.56;4960389;28;20501;-40
2022/06/01 00:02:36;;;;;;;3.60;1.58;;;12.20;99.90;;;11.85;88.52;97009.72;4960532;28;20029;-39
2022/06/01 00:05:04;;;;;;;2.35;1.48;;;12.20;99.90;;;11.83;88.27;97006.28;4956529;28;20224;-39
2022/06/01 00:07:30;;;;;;;2.53;1.38;;;12.10;99.90;;;11.80;87.89;96995.88;4955206;28;21294;-41
2022/06/01 00:09:56;;;;;;;1.55;1.40;;;12.10;99.90;;;11.78;87.69;96995.94;4958998;28;20453;-39
2022/06/01 00:12:23;;;;;;;2.35;1.67;;;12.10;99.90;;;11.77;86.92;96993.38;4962664;28;20514;-39
2022/06/01 00:14:49;;;;;;;3.10;1.65;;;12.10;99.90;;;11.79;86.22;96999.44;4959416;28;20501;-40
2022/06/01 00:17:16;;;;;;;3.95;1.80;;;12.10;99.90;;;11.82;86.37;96999.28;4960504;28;20031;-39
2022/06/01 00:19:43;;;;;;;3.40;2.10;;;12.10;99.90;;;11.82;86.21;96997.50;4966576;28;20038;-39
2022/06/01 00:22:11;;;;;;;2.03;1.65;;;12.10;99.90;;;11.89;85.54;96998.06;4966866;28;20042;-40
2022/06/01 00:24:45;;;;;;;2.42;1.67;;;12.20;99.90;;;11.83;85.90;96990.44;4973376;28;20092;-39
2022/06/01 00:27:13;;;;;;;2.55;1.60;;;12.20;99.90;;;11.91;85.77;97004.16;4959974;28;20648;-39
2022/06/01 00:29:39;;;;;;;2.78;1.70;;;12.20;99.90;;;11.90;85.51;96996.25;4960144;28;20129;-41
2022/06/01 00:32:07;;;;;;;4.10;1.77;;;12.20;99.90;;;11.87;85.91;96999.09;4959690;28;20038;-39
2022/06/01 00:34:33;;;;;;;2.38;1.50;;;12.20;99.90;;;11.84;86.40;97000.94;4962771;28;20030;-40
2022/06/01 00:36:59;;;;;;;2.47;1.95;;;12.20;99.90;;;11.79;87.11;97004.72;4960204;28;20483;-40
2022/06/01 00:39:25;;;;;;;2.40;1.40;;;12.20;99.90;;;11.79;87.82;97010.00;4956092;28;20041;-39
2022/06/01 00:41:51;;;;;;;3.88;1.40;;;12.20;99.90;;;11.73;87.89;97008.50;4954939;28;20055;-40
2022/06/01 00:44:17;;;;;;;3.67;1.52;;;12.10;99.90;;;11.71;87.97;97004.25;4948944;28;20825;-39
2022/06/01 00:46:43;;;;;;;3.92;1.60;;;12.10;99.90;;;11.65;87.97;97006.25;4950577;28;20034;-39
2022/06/01 00:49:17;;;;;;;2.30;1.75;;;12.00;99.90;;;11.62;87.60;97008.16;4951981;28;20049;-40
2022/06/01 00:51:44;;;;;;;3.22;1.80;;;11.90;99.90;;;11.59;88.05;97009.19;5003777;23;20050;-40
2022/06/01 00:54:11;;;;;;;2.20;1.73;;;11.90;99.90;;;11.54;88.31;97013.81;4973387;28;21852;-39
2022/06/01 00:56:53;;;;;;;2.95;1.75;;;11.80;99.90;;;11.52;87.80;97018.31;4961795;28;20148;-39
2022/06/01 00:59:23;;;;;;;2.80;1.90;;;11.90;99.90;;;11.52;87.16;97014.81;4970471;28;20036;-39
2022/06/01 01:01:52;;;;;;;3.42;1.92;;;11.90;99.90;;;11.54;86.61;97027.03;4964772;28;20037;-39
2022/06/01 01:04:18;;;;;;;4.05;2.10;;;11.80;99.90;;;11.55;86.69;97015.50;4970340;28;20068;-39
2022/06/01 01:06:44;;;;;;;2.63;1.85;;;11.80;99.90;;;11.55;87.49;97012.88;4964748;28;20030;-39
2022/06/01 01:09:10;;;;;;;3.20;2.03;;;11.90;99.90;;;11.48;87.53;97011.44;4968198;28;20170;-39
2022/06/01 01:11:57;;;;;;;3.15;2.03;;;11.90;99.90;;;11.55;87.38;97010.22;4969810;28;20041;-39
2022/06/01 01:14:29;;;;;;;3.28;1.80;;;11.90;99.90;;;11.55;86.87;97004.09;4975978;28;20046;-39
2022/06/01 01:16:55;;;;;;;2.50;1.60;;;11.90;99.90;;;11.41;87.34;96994.19;4963753;28;20493;-39
2022/06/01 01:23:18;;;;;;;2.55;1.80;;;11.80;99.90;;;11.41;87.68;97002.97;4949617;28;20136;-39
2022/06/01 01:25:44;;;;;;;;;;;11.80;99.90;;;11.38;88.06;96997.84;4963230;28;20034;-39
2022/06/01 01:28:10;;;;;;;3.78;1.80;;;11.70;99.90;;;11.36;88.70;97002.34;4970504;28;21254;-39
2022/06/01 01:30:35;;;;;;;4.22;2.10;;;11.70;99.90;;;11.34;89.19;97004.19;4976956;28;20180;-39
2022/06/01 01:33:23;;;;;;;2.60;1.60;;;11.70;99.90;;;11.32;89.05;97000.75;4967262;28;20065;-39
2022/06/01 01:35:53;;;;;;;2.22;1.52;;;11.60;99.90;;;11.26;89.22;96999.25;4966532;28;20091;-39
2022/06/01 01:38:45;;;;;;;2.03;1.63;;;11.60;99.90;;;11.20;89.27;97014.53;4975528;28;20069;-39
2022/06/01 01:41:26;;;;;;;3.50;1.90;;;11.60;99.90;;;11.14;90.42;97014.78;4967366;28;20034;-39
2022/06/01 01:44:25;;;;;;;1.65;1.50;;;11.50;99.90;;;11.05;91.79;97008.16;4971254;28;20038;-39
2022/06/01 01:46:51;;;;;;;2.58;1.70;;;11.40;99.90;;;10.97;92.06;97005.00;4956644;28;20049;-39
2022/06/01 01:49:21;;;;;;;5.22;1.73;;;11.30;99.90;;;10.94;92.22;97003.34;4967494;28;20406;-40
2022/06/01 01:51:51;;;;;;;2.53;1.83;;;11.30;99.90;;;10.90;93.88;97009.69;4965508;28;20034;-38
2022/06/01 01:54:43;;;;;;;1.65;1.40;;;11.30;99.90;;;10.88;93.51;97004.50;4966578;28;20042;-39
2022/06/01 01:57:48;;;;;;;3.10;1.80;;;11.30;99.90;;;10.82;93.66;97004.78;4966762;28;20038;-38
2022/06/01 02:00:39;;;;;;;3.30;1.63;;;11.20;99.90;;;10.82;94.16;97010.03;4970316;28;20741;-39
2022/06/01 02:03:32;;;;;;;2.00;1.80;;;11.20;99.90;;;10.75;95.76;97003.31;4965643;28;20034;-39
2022/06/01 02:06:23;;;;;;;2.95;1.80;;;11.10;99.90;;;10.68;96.99;97010.66;4970385;28;20462;-38
2022/06/01 02:09:07;;;;;;;3.42;2.00;;;11.10;99.90;;;10.63;97.47;97007.34;4967736;28;20727;-38
2022/06/01 02:14:47;;;;;;;2.85;2.05;;;11.10;99.90;;;10.77;96.53;97013.81;4973460;28;20577;-38
2022/06/01 02:17:20;;;;;;;2.20;1.90;;;11.20;99.90;;;10.83;95.83;97009.09;4978474;28;20037;-38
2022/06/01 02:19:53;;;;;;;1.90;1.60;;;11.20;99.90;;;10.83;95.71;97014.38;4975243;28;20033;-38
2022/06/01 02:22:19;;;;;;;4.10;1.80;;;11.20;99.90;;;10.77;96.18;97008.53;4977344;28;20034;-38
2022/06/01 02:24:48;;;;;;;1.90;1.50;;;11.10;99.90;;;10.72;97.12;97008.72;4979780;28;20514;-38
2022/06/01 02:27:16;;;;;;;2.17;1.70;;;11.10;99.90;;;10.64;98.31;97013.47;4979360;28;20029;-38
2022/06/01 02:29:47;;;;;;;2.35;1.60;;;11.00;99.90;;;10.58;98.39;97000.56;4992357;28;20038;-38
2022/06/01 02:32:14;;;;;;;3.45;1.98;;;11.00;99.90;;;10.54;97.45;97001.63;4959996;28;20038;-38
2022/06/01 02:34:43;;;;;;;3.42;2.03;;;10.90;99.90;;;10.50;97.57;97001.75;4979684;28;20453;-38
2022/06/01 02:37:10;;;;;;;5.13;1.65;;;10.90;99.90;;;10.49;97.00;97002.66;4975713;28;20033;-38
2022/06/01 02:39:41;;;;;;;3.00;1.73;;;10.90;99.90;;;10.50;95.98;96998.25;4993717;28;20047;-38
2022/06/01 02:42:26;;;;;;;2.00;1.73;;;10.90;99.90;;;10.50;96.09;96995.63;4979395;28;20313;-38
2022/06/01 02:45:08;;;;;;;2.03;1.77;;;10.90;99.90;;;10.47;96.12;97001.88;4984798;28;20081;-38
2022/06/01 02:47:38;;;;;;;2.88;1.83;;;10.90;99.90;;;10.43;96.77;97004.72;4980300;28;20100;-38
2022/06/01 02:50:07;;;;;;;2.45;1.77;;;10.80;99.90;;;10.46;96.12;97007.19;4975185;28;20048;-38
2022/06/01 02:52:33;;;;;;;3.30;1.98;;;10.80;99.90;;;10.42;97.18;97003.84;4980849;28;20077;-38
2022/06/01 02:54:59;;;;;;;3.20;1.77;;;10.80;99.90;;;10.38;98.34;97007.53;4973186;28;20129;-38
2022/06/01 02:57:24;;;;;;;3.05;1.80;;;10.70;99.90;;;10.31;98.40;97008.72;4974401;28;20030;-38
2022/06/01 02:59:50;;;;;;;4.00;1.80;;;10.70;99.90;;;10.31;97.42;97006.09;4976938;28;20030;-38
2022/06/01 03:02:17;;;;;;;3.22;1.80;;;10.60;99.90;;;10.29;97.39;97002.63;4975340;28;20026;-38
2022/06/01 03:04:44;;;;;;;2.33;1.63;;;10.70;99.90;;;10.25;97.98;97007.16;4984330;28;20120;-38
2022/06/01 03:07:12;;;;;;;2.05;1.70;;;10.70;99.90;;;10.25;98.76;97008.97;4984611;28;20041;-38
2022/06/01 03:09:38;;;;;;;2.55;2.00;;;10.70;99.90;;;10.20;99.85;97009.13;4984971;28;20541;-38
2022/06/01 03:12:06;;;;;;;2.83;2.10;;;10.60;99.90;;;10.15;99.86;97002.34;4984754;28;20237;-38
2022/06/01 03:14:33;;;;;;;2.72;1.80;;;10.60;99.90;;;10.18;99.69;97000.44;4982637;28;20049;-38
2022/06/01 03:16:58;;;;;;;2.10;1.75;;;10.60;99.90;;;10.20;100.00;97003.03;4976574;28;21308;-38
2022/06/01 03:19:25;;;;;;;2.22;1.70;;;10.60;99.90;;;10.18;100.00;96996.97;4980231;28;20037;-38
2022/06/01 03:21:51;;;;;;;3.42;1.90;;;10.60;99.90;;;10.15;100.00;97005.84;4980799;28;20034;-38
2022/06/01 03:24:17;;;;;;;4.38;2.10;;;10.50;99.90;;;10.10;100.00;97000.78;4983207;28;20141;-38
2022/06/01 03:26:43;;;;;;;3.53;1.90;;;10.50;99.90;;;10.10;100.00;97000.78;4976727;28;20038;-38
2022/06/01 03:29:09;;;;;;;1.98;1.60;;;10.50;99.90;;;10.09;100.00;97011.38;4978484;28;20034;-38
2022/06/01 03:31:35;;;;;;;2.15;1.88;;;10.50;99.90;;;10.04;100.00;97001.00;4977519;28;20045;-38
2022/06/01 03:34:02;;;;;;;1.80;1.65;;;10.40;99.90;;;10.00;100.00;97002.06;4982761;28;20466;-38
2022/06/01 03:36:27;;;;;;;2.58;1.90;;;10.40;99.90;;;9.99;100.00;97005.59;4979169;28;20116;-38
2022/06/01 03:38:53;;;;;;;3.90;1.95;;;10.40;99.90;;;10.00;100.00;97017.88;4977269;28;21274;-38
2022/06/01 03:41:19;;;;;;;1.90;1.73;;;10.40;99.90;;;10.03;100.00;97009.84;4974966;28;21381;-38
2022/06/01 03:46:32;;;;;;;3.35;2.00;;;10.40;99.90;;;10.05;100.00;97012.38;4979548;28;20513;-38
2022/06/01 03:48:57;;;;;;;2.97;2.05;;;10.40;99.90;;;10.02;100.00;97010.75;4977494;28;20518;-38
2022/06/01 03:51:26;;;;;;;2.45;1.60;;;10.40;99.90;;;10.03;100.00;97007.22;4978621;28;20034;-38
2022/06/01 03:53:51;;;;;;;3.35;1.80;;;10.40;99.90;;;10.05;100.00;97004.50;4979003;28;20041;-38
2022/06/01 03:56:17;;;;;;;2.95;1.85;;;10.50;99.90;;;10.07;100.00;97008.78;4976470;28;20038;-37
2022/06/01 03:58:43;;;;;;;3.15;2.33;;;10.50;99.90;;;10.11;100.00;97006.88;4972390;28;20107;-38
2022/06/01 04:01:09;;;;;;;2.97;1.98;;;10.50;99.90;;;10.15;100.00;97015.53;4973252;28;20650;-37
2022/06/01 04:03:35;;;;;;;3.63;2.10;;;10.50;99.90;;;10.15;100.00;97005.84;4976769;28;20117;-38
2022/06/01 04:06:01;;;;;;;3.38;2.30;;;10.60;99.90;;;10.23;100.00;97016.03;4979545;28;20041;-38
2022/06/01 04:08:27;;;;;;;2.72;1.88;;;10.60;99.90;;;10.27;100.00;97026.41;4976951;28;20088;-38
2022/06/01 04:10:52;;;;;;;3.97;2.15;;;10.70;99.90;;;10.37;100.00;97023.41;4974721;28;20606;-37
2022/06/01 04:13:18;;;;;;;3.85;1.80;;;10.70;99.90;;;10.45;100.00;97013.41;4981975;28;20030;-37
2022/06/01 04:15:44;;;;;;;2.80;2.10;;;10.90;99.90;;;10.62;100.00;97023.22;4981179;28;20064;-37
2022/06/01 04:18:10;;;;;;;2.00;1.80;;;11.00;99.90;;;10.65;100.00;97015.19;4984309;28;20049;-38
2022/06/01 04:20:36;;;;;;;3.15;2.00;;;11.10;99.90;;;10.80;100.00;97034.75;4984934;28;20040;-37
2022/06/01 04:23:02;;;;;;;3.10;1.90;;;11.20;99.90;;;10.82;100.00;97015.31;4986653;28;20034;-38
2022/06/01 04:25:30;;;;;;;2.35;1.92;;;11.20;99.90;;;10.91;100.00;97024.63;4987514;28;20038;-38
2022/06/01 04:27:56;;;;;;;2.72;2.08;;;11.30;99.90;;;10.98;100.00;97023.41;4963530;28;20045;-38
2022/06/01 04:30:22;;;;;;;2.05;1.85;;;11.40;99.90;;;11.05;100.00;97018.69;4976483;28;20030;-40
2022/06/01 04:32:51;;;;;;;2.25;2.05;;;11.40;99.90;;;11.12;100.00;97016.66;4976913;28;20038;-41
2022/06/01 04:35:19;;;;;;;4.22;2.40;;;11.50;99.90;;;11.16;100.00;97011.19;4996374;28;20037;-40
2022/06/01 04:37:45;;;;;;;2.33;1.80;;;11.50;99.90;;;11.22;100.00;97005.59;4978439;28;20113;-40
2022/06/01 04:40:13;;;;;;;2.65;1.70;;;11.60;99.90;;;11.27;100.00;97030.00;4980216;28;20438;-40
2022/06/01 04:42:40;;;;;;;3.67;2.15;;;11.60;99.90;;;11.34;100.00;97014.75;4982670;28;20036;-40
2022/06/01 04:45:09;;;;;;;3.65;1.83;;;11.70;99.90;;;11.41;100.00;97015.31;4994664;28;20160;-38
2022/06/01 04:47:35;;;;;;;3.30;1.95;;;11.80;99.90;;;11.49;100.00;97018.47;4990340;28;20048;-38
2022/06/01 04:50:01;;;;;;;3.58;1.85;;;11.90;99.90;;;11.60;100.00;97021.44;4976347;28;20038;-38
2022/06/01 04:52:27;;;;;;;2.20;2.00;;;11.90;99.90;;;11.69;100.00;97017.50;4991637;28;20099;-38
2022/06/01 04:54:53;;;;;;;2.15;1.80;;;12.00;99.90;;;11.78;100.00;97027.63;5000161;28;20113;-38
2022/06/01 04:57:18;;;;;;;2.92;1.77;;;12.20;99.90;;;11.91;100.00;97017.38;4985537;28;20053;-38
2022/06/01 04:59:44;;;;;;;2.70;2.00;;;12.30;99.90;;;12.11;98.81;97029.59;4977920;28;20046;-38
2022/06/01 05:02:10;;;;;;;3.08;2.00;;;12.40;99.90;;;12.45;97.95;97029.72;4994578;28;20061;-38
2022/06/01 05:04:35;;;;;;;4.00;2.10;;;12.70;99.90;;;12.91;94.63;97027.38;4986339;28;20501;-38
2022/06/01 05:07:02;;;;;;;3.03;2.00;;;13.00;99.90;;;13.82;90.47;97025.16;4992394;28;20044;-38
2022/06/01 05:09:28;;;;;;;7.35;1.90;;;13.50;99.90;;;15.02;82.22;97024.38;4991071;28;20622;-38
2022/06/01 05:11:54;;;;;;;5.60;2.33;;;14.20;99.90;;;16.24;76.83;97024.72;4990757;28;20509;-38
2022/06/01 05:14:20;;;;;;;2.25;1.73;;;15.10;99.90;;;17.63;68.67;97020.59;4993812;28;20030;-38
2022/06/01 05:16:46;;;;;;;2.22;1.70;;;16.10;99.90;;;18.63;61.94;97005.28;4990908;28;20029;-38
2022/06/01 05:19:11;;;;;;;2.58;1.75;;;17.00;99.90;;;19.45;57.94;97021.25;4995297;28;20021;-40
2022/06/01 05:21:37;;;;;;;2.45;1.40;;;17.70;99.90;;;20.09;55.60;97017.94;4990467;28;20058;-40
2022/06/01 05:24:04;;;;;;;4.10;1.98;;;18.40;99.90;;;20.30;53.59;97018.00;4990216;28;20061;-39
2022/06/01 05:26:30;;;;;;;3.72;1.73;;;18.80;99.90;;;20.56;53.11;97023.84;4992072;28;20225;-40
2022/06/01 05:28:55;;;;;;;5.38;1.40;;;19.10;99.90;;;20.49;53.24;97014.63;4982305;28;20317;-40
2022/06/01 05:31:22;;;;;;;5.53;1.73;;;19.10;99.90;;;20.00;54.77;97016.84;4983666;28;20056;-40
2022/06/01 05:33:49;;;;;;;3.33;1.73;;;19.10;99.90;;;19.44;57.22;97017.72;4991446;28;20072;-41
2022/06/01 05:36:18;;;;;;;2.28;1.63;;;18.80;99.90;;;18.89;58.91;97020.19;4992604;28;20037;-40
2022/06/01 05:38:46;;;;;;;2.13;1.67;;;18.50;99.90;;;18.34;60.99;97023.47;4982226;28;20233;-39
2022/06/01 05:41:12;;;;;;;3.20;1.90;;;18.10;99.90;;;17.89;62.68;97016.06;4991516;28;20013;-39
2022/06/01 05:43:38;;;;;;;2.40;1.50;;;17.80;99.90;;;17.78;63.77;97016.81;4992149;28;20036;-39
2022/06/01 05:46:04;;;;;;;2.17;1.70;;;17.60;99.90;;;17.63;63.97;97015.28;4987974;28;20058;-40
2022/06/01 05:48:30;;;;;;;2.10;1.65;;;17.50;99.90;;;17.58;64.95;97020.91;4985214;28;20096;-39
2022/06/01 05:50:56;;;;;;;2.58;1.77;;;17.40;99.90;;;17.52;64.43;97021.38;4982970;28;20056;-39
2022/06/01 05:53:22;;;;;;;4.65;1.60;;;17.40;99.90;;;17.39;64.84;97008.06;4989607;28;20647;-39
2022/06/01 05:55:48;;;;;;;3.00;1.63;;;17.40;99.90;;;17.38;66.32;97021.50;4984169;28;20038;-39
2022/06/01 05:58:22;;;;;;;4.13;1.60;;;17.40;99.90;;;17.27;66.64;97023.09;4992024;28;20034;-39
2022/06/01 06:00:50;;;;;;;2.58;1.67;;;17.30;99.90;;;17.19;66.63;97022.75;4992269;28;20052;-39
2022/06/01 06:03:18;;;;;;;2.90;1.60;;;17.30;99.90;;;17.15;67.49;97013.28;4989002;28;20528;-39
2022/06/01 06:08:30;;;;;;;6.13;1.80;;;17.30;99.90;;;17.10;68.45;97021.63;4984902;28;20634;-39
2022/06/01 06:10:55;;;;;;;4.32;2.00;;;17.30;99.90;;;17.12;68.98;97025.03;4986391;28;20034;-39
2022/06/01 06:13:21;;;;;;;2.33;1.85;;;17.20;99.90;;;17.11;68.77;97025.13;4990893;28;20061;-39
2022/06/01 06:15:48;;;;;;;2.83;1.48;;;17.20;99.90;;;17.07;69.59;97027.16;4989725;28;20832;-39
2022/06/01 06:18:15;;;;;;;2.58;1.70;;;17.20;99.90;;;17.11;69.93;97022.47;4991879;28;20030;-40
2022/06/01 06:20:42;;;;;;;5.70;1.80;;;17.20;99.90;;;17.16;70.26;97025.66;4990909;28;20100;-39
2022/06/01 06:23:09;;;;;;;3.05;1.80;;;17.30;99.90;;;17.16;70.11;97028.31;4988331;28;20487;-39
2022/06/01 06:25:35;;;;;;;3.90;1.80;;;17.30;99.90;;;17.18;69.96;97029.06;4990910;28;20826;-39
2022/06/01 06:28:00;;;;;;;3.03;1.70;;;17.30;99.90;;;17.21;69.78;97020.88;4993300;28;20051;-39
2022/06/01 06:30:26;;;;;;;2.03;1.60;;;17.40;99.90;;;17.31;69.96;97029.06;4992958;28;20506;-39
2022/06/01 06:32:52;;;;;;;3.60;1.92;;;17.50;99.90;;;17.32;69.58;97028.97;4990801;28;20041;-39
2022/06/01 06:35:18;;;;;;;2.70;1.70;;;17.50;99.90;;;17.36;69.56;97030.44;4990478;28;20073;-39
2022/06/01 06:37:44;;;;;;;2.40;1.70;;;17.50;99.90;;;17.45;69.68;97033.44;4978245;28;20514;-42
2022/06/01 06:40:12;;;;;;;2.80;1.77;;;17.60;99.90;;;17.41;68.17;97027.47;4985068;28;20046;-42
2022/06/01 06:42:37;;;;;;;3.83;1.92;;;17.70;99.90;;;17.43;68.68;97033.53;4990254;28;20030;-46
2022/06/01 06:45:05;;;;;;;4.53;1.70;;;17.70;99.90;;;17.50;69.06;97025.97;4990052;28;20773;-42
2022/06/01 06:47:35;;;;;;;4.95;2.00;;;17.70;99.90;;;17.60;68.46;97024.31;4991354;28;20037;-43
2022/06/01 06:50:05;;;;;;;4.40;2.17;;;17.80;99.90;;;17.66;67.25;97025.72;4984765;28;20037;-44
2022/06/01 06:52:31;;;;;;;4.05;1.95;;;17.90;99.90;;;17.75;67.67;97027.72;4985152;28;20109;-44
2022/06/01 06:54:56;;;;;;;7.28;2.10;;;17.90;99.90;;;17.82;65.93;97025.44;5002088;23;20319;-42
2022/06/01 06:57:22;;;;;;;5.05;1.80;;;18.00;99.90;;;17.89;65.53;97030.28;5009810;28;20115;-41
2022/06/01 06:59:48;;;;;;;2.92;1.55;;;18.10;99.90;;;17.94;64.83;97024.59;5003948;28;20378;-39
2022/06/01 07:02:16;;;;;;;2.53;1.70;;;18.10;99.90;;;18.05;65.23;97024.69;5006225;28;20620;-40
2022/06/01 07:04:42;;;;;;;3.50;1.75;;;18.20;99.90;;;18.21;64.73;97026.22;5005402;28;20108;-40
2022/06/01 07:07:08;;;;;;;2.75;1.80;;;18.40;99.90;;;18.37;64.00;97025.94;4996805;28;20117;-40
2022/06/01 07:09:34;;;;;;;2.97;1.95;;;18.50;99.90;;;18.48;64.39;97032.19;4985492;28;20036;-40
2022/06/01 07:12:00;;;;;;;2.75;1.90;;;18.60;99.90;;;18.57;62.07;97035.13;4985448;28;20065;-41
2022/06/01 07:14:25;;;;;;;2.92;1.65;;;18.70;99.90;;;18.68;60.63;97036.03;4993851;28;20037;-41
2022/06/01 07:16:51;;;;;;;3.15;1.98;;;18.80;99.90;;;18.55;59.68;97011.19;4986236;28;20806;-41
2022/06/01 07:19:17;;;;;;;2.85;1.77;;;18.90;99.90;;;18.77;58.57;97034.47;4990010;28;20041;-42
2022/06/01 07:21:42;;;;;;;2.88;1.70;;;19.00;99.90;;;18.88;59.23;97031.03;4985671;28;20035;-40
2022/06/01 07:24:09;;;;;;;3.13;1.77;;;19.10;99.90;;;18.98;58.13;97032.00;4997358;28;20021;-40
2022/06/01 07:26:44;;;;;;;3.80;1.48;;;19.10;99.90;;;18.99;55.29;97033.72;4991493;28;20438;-42
2022/06/01 07:29:10;;;;;;;2.83;1.90;;;19.20;98.80;;;19.08;55.75;97037.50;4995861;28;20081;-41
2022/06/01 07:31:37;;;;;;;3.08;1.60;;;19.30;98.70;;;19.05;55.50;97045.75;4993267;28;20034;-43
2022/06/01 07:34:04;;;;;;;6.38;1.70;;;19.30;98.50;;;19.06;56.17;97045.63;4993306;28;20030;-43
2022/06/01 07:36:31;;;;;;;2.00;1.42;;;19.30;98.80;;;19.05;53.61;97043.91;4998825;28;20026;-43
2022/06/01 07:44:38;;;;;;;3.47;1.80;;;19.40;96.90;;;19.30;53.81;97034.00;4994869;28;20505;-43
2022/06/01 07:47:05;;;;;;;2.67;1.70;;;19.50;97.30;;;19.34;50.99;97047.97;4996452;28;20037;-41
2022/06/01 07:49:31;;;;;;;3.47;1.55;;;19.60;96.00;;;19.36;50.57;97051.38;4995715;28;20124;-42
2022/06/01 07:51:57;;;;;;;3.28;1.67;;;19.60;95.10;;;19.36;51.54;97046.91;4996427;28;20083;-42
2022/06/01 07:54:23;;;;;;;2.13;1.27;;;19.60;95.40;;;19.41;48.78;97038.50;4998059;28;20043;-42
2022/06/01 07:56:49;;;;;;;2.13;1.52;;;19.60;94.10;;;19.55;49.46;97046.28;4996825;28;20054;-42
2022/06/01 07:59:16;;;;;;;3.45;1.77;;;19.70;94.50;;;19.54;48.61;97039.25;4996822;28;20102;-44
2022/06/01 08:01:42;;;;;;;2.58;1.30;;;19.80;93.60;;;19.62;47.86;97036.81;4988908;28;20034;-43
2022/06/01 08:04:08;;;;;;;2.42;1.40;;;19.80;93.10;;;19.67;46.26;97038.25;4994000;28;20146;-43
2022/06/01 08:06:37;;;;;;;3.75;1.25;;;19.90;91.90;;;19.82;47.05;97031.72;4996122;28;20106;-43
2022/06/01 08:09:05;;;;;;;2.13;1.15;;;20.00;92.30;;;19.92;45.65;97031.81;4989592;28;20197;-43
2022/06/01 08:14:16;;;;;;;2.10;1.25;;;20.20;91.40;;;20.29;41.58;97032.34;4993151;28;20576;-41
2022/06/01 08:16:44;;;;;;;1.95;1.40;;;20.40;85.90;;;20.48;41.99;97028.19;4995451;28;20682;-42
2022/06/01 08:19:11;;;;;;;4.35;1.45;;;20.60;85.80;;;20.68;41.28;97027.38;4994357;28;20038;-43
2022/06/01 08:21:38;;;;;;;1.92;1.10;;;20.80;83.80;;;20.85;39.44;97022.44;4992900;28;20130;-43
2022/06/01 08:24:06;;;;;;;3.17;1.20;;;21.00;81.50;;;20.90;40.09;97022.88;4994258;28;20030;-43
2022/06/01 08:26:32;;;;;;;2.67;1.15;;;21.10;81.80;;;20.97;39.22;97024.06;4998258;28;20051;-41
2022/06/01 08:28:58;;;;;;;1.95;1.02;;;21.10;78.50;;;21.08;39.36;97024.00;4996756;28;20034;-44
2022/06/01 08:31:27;;;;;;;1.50;1.10;;;21.30;79.60;;;21.21;39.25;97021.13;4993601;28;20088;-41
2022/06/01 08:33:54;;;;;;;4.03;1.25;;;21.40;78.10;;;21.31;39.81;97021.16;4990806;28;20385;-41
2022/06/01 08:36:20;;;;;;;4.43;1.40;;;21.60;78.20;;;21.63;39.01;97009.50;4997390;28;20041;-41
2022/06/01 08:38:46;;;;;;;3.40;1.35;;;21.90;77.10;;;21.94;38.40;97015.66;4993321;28;20032;-42
2022/06/01 08:41:14;;;;;;;2.85;1.40;;;22.30;75.50;;;22.17;38.00;97018.97;4996493;28;20037;-41
2022/06/01 08:43:47;;;;;;;4.63;1.27;;;22.50;73.60;;;22.60;37.97;97017.78;4994645;28;20030;-41
2022/06/01 08:46:14;;;;;;;1.95;1.30;;;22.90;73.90;;;22.75;38.33;97022.72;4995420;28;20509;-43
2022/06/01 08:48:51;;;;;;;2.47;1.35;;;23.00;74.00;;;22.93;38.11;97021.00;4997673;28;20040;-41
2022/06/01 08:51:20;;;;;;;2.95;1.40;;;23.20;73.30;;;23.10;37.47;97041.00;4994663;28;20088;-43
2022/06/01 08:53:46;;;;;;;4.20;1.30;;;23.40;72.10;;;23.05;36.86;97049.47;4996223;28;20072;-41
2022/06/01 08:56:18;;;;;;;3.67;1.33;;;23.40;70.70;;;22.99;42.98;97057.25;4999997;28;20034;-41
2022/06/01 08:59:18;;;;;;;4.03;1.38;;;23.20;78.10;;;22.66;40.98;97060.19;5013244;28;20112;-41
2022/06/01 09:02:36;;;;;;;5.00;1.42;;;23.00;76.20;;;22.57;42.30;97046.78;4994549;28;20041;-41
2022/06/01 09:05:31;;;;;;;4.78;1.60;;;22.90;78.70;;;22.36;44.37;97041.50;4996103;28;20193;-41
2022/06/01 09:08:11;;;;;;;4.72;1.85;;;22.60;80.80;;;22.09;43.38;97041.16;4995358;28;20037;-42
2022/06/01 09:11:04;;;;;;;1.92;1.42;;;22.40;79.30;;;22.28;43.30;97059.16;4992745;28;20440;-42
2022/06/01 09:13:54;;;;;;;;;;;22.50;80.70;;;22.47;44.25;97065.59;4995638;28;20032;-41
2022/06/01 09:16:28;;;;;;;5.75;1.55;;;22.60;81.40;;;22.63;42.88;97062.31;4991932;28;19940;-41
2022/06/01 09:18:55;;;;;;;3.42;1.50;;;22.80;81.10;;;22.32;41.34;97061.59;4990445;28;20094;-41
2022/06/01 09:24:32;;;;;;;4.10;1.50;;;22.40;78.70;;;22.05;44.41;97060.34;4995036;28;20091;-42
2022/06/01 09:27:05;;;;;;;3.72;1.33;;;22.30;81.20;;;22.10;44.58;97053.56;4994390;28;20074;-40
2022/06/01 09:29:46;;;;;;;1.75;1.20;;;22.30;81.60;;;22.09;44.50;97054.59;4994507;28;20030;-42
2022/06/01 09:32:27;;;;;;;1.73;1.40;;;22.30;81.20;;;21.92;43.65;97048.00;4992789;28;20022;-42
2022/06/01 09:34:57;;;;;;;2.38;1.30;;;22.20;79.00;;;21.93;43.43;97055.09;4995141;28;20040;-41
2022/06/01 09:37:43;;;;;;;2.42;1.27;;;22.20;80.60;;;21.91;43.71;97050.81;4994465;28;20037;-41
2022/06/01 09:40:29;;;;;;;1.77;1.35;;;22.10;79.90;;;21.68;43.51;97051.03;4993982;28;20041;-42
2022/06/01 09:43:00;;;;;;;2.38;1.20;;;21.90;80.20;;;21.50;42.01;97068.75;4992031;28;20041;-41
2022/06/01 09:45:46;;;;;;;2.40;1.40;;;21.80;75.90;;;21.35;44.57;97073.56;4993324;28;20069;-42
2022/06/01 09:48:21;;;;;;;3.47;1.73;;;21.60;80.20;;;;;;4996824;28;20068;-41
2022/06/01 09:51:25;;;;;;;4.05;1.75;;;21.70;75.60;;;21.67;40.28;97069.94;4994474;28;20038;-40
2022/06/01 09:54:07;;;;;;;8.85;1.67;;;21.90;73.90;;;22.00;39.14;97065.28;5008120;28;20494;-41
2022/06/01 09:56:41;;;;;;;2.92;1.20;;;22.20;73.00;;;22.17;39.32;97071.84;4994851;28;20045;-42
2022/06/01 10:08:19;;;;;;;8.80;1.33;;;21.90;77.20;;;21.78;39.52;97069.00;4993929;28;20535;-41
2022/06/01 10:11:05;;;;;;;2.03;1.27;;;22.00;73.60;;;21.86;40.37;97059.31;4989757;28;20034;-42
2022/06/01 10:13:34;;;;;;;1.00;0.88;;;22.10;75.70;;;21.94;36.46;97055.94;4994103;28;20046;-41
2022/06/01 10:16:27;;;;;;;1.50;1.10;;;22.20;68.50;;;22.15;36.73;97061.25;4994138;28;20037;-41
2022/06/01 10:18:56;;;;;;;1.98;1.10;;;22.30;66.50;;;22.27;36.26;97062.84;4991108;28;20050;-41
2022/06/01 10:21:28;;;;;;;1.95;1.13;;;22.50;65.30;;;22.08;35.05;97058.25;5010536;28;20036;-40
2022/06/01 10:24:01;;;;;;;1.90;1.05;;;22.40;64.00;;;21.81;33.46;97066.91;5018508;28;20068;-41
2022/06/01 10:26:32;;;;;;;1.20;1.00;;;22.20;60.90;;;21.68;35.84;97071.66;5008612;28;20034;-41
2022/06/01 10:29:08;;;;;;;1.45;1.10;;;22.00;64.10;;;21.44;33.72;97067.41;4990368;28;20317;-41
2022/06/01 10:31:46;;;;;;;1.55;0.90;;;21.80;60.40;;;21.25;34.45;97065.47;4990275;28;20037;-42
2022/06/01 10:34:23;;;;;;;1.08;0.98;;;21.60;61.90;;;21.11;35.61;97055.06;4986788;28;20034;-41
2022/06/01 10:36:57;;;;;;;1.48;0.85;;;21.50;63.90;;;21.25;34.33;97064.63;4983177;28;20209;-41
2022/06/01 10:39:34;;;;;;;1.25;0.90;;;21.50;60.80;;;21.36;32.63;97061.84;5001683;28;20037;-42
2022/06/01 10:42:06;;;;;;;1.08;0.80;;;21.70;59.30;;;21.51;34.24;97068.59;4990832;28;20448;-42
2022/06/01 10:44:58;;;;;;;1.95;0.95;;;21.70;61.40;;;21.69;34.21;97063.47;4991451;28;20034;-44
2022/06/01 10:47:54;;;;;;;2.05;0.93;;;21.90;60.60;;;21.85;35.66;97057.59;4988068;28;20441;-42
2022/06/01 10:50:45;;;;;;;3.22;0.95;;;22.10;61.10;;;22.01;35.39;97067.84;4992372;28;20061;-42
2022/06/01 10:53:59;;;;;;;1.35;0.90;;;22.30;63.40;;;22.21;32.06;97070.56;4994134;28;20053;-42
2022/06/01 10:56:26;;;;;;;1.42;0.98;;;22.40;58.70;;;22.15;32.55;97063.91;4991911;28;20057;-42
2022/06/01 10:58:59;;;;;;;1.33;1.00;;;22.50;58.10;;;22.29;33.29;97066.25;4990966;28;20044;-42
2022/06/01 11:02:22;;;;;;;2.42;1.00;;;22.60;58.50;;;22.53;32.67;97062.31;4989358;28;20592;-42
2022/06/01 11:05:18;;;;;;;4.18;1.00;;;22.90;55.50;;;22.85;30.23;97072.81;4973490;28;20164;-41
2022/06/01 11:07:55;;;;;;;2.42;0.95;;;23.20;55.70;;;23.12;30.64;97068.59;4992034;28;20080;-42